Time;durP1;ratioP1;P1;durP2;ratioP2;P2;SDS_P1;SDS_P2;PMS_P1;PMS_P2;Temp;Humidity;BMP_temperature;BMP_pressure;BME280_temperature;BME280_humidity;BME280_pressure;Samples;Min_cycle;Max_cycle;Signal;HPM_P1;HPM_P2
2023/03/10 00:01:19;;;;;;;0.10;0.10;;;9.20;99.90;230.40;231737.00;;;;5105805;27;20204;-74
2023/03/10 00:03:48;;;;;;;0.10;0.10;;;9.10;99.90;230.40;231737.00;;;;5109981;27;20648;-74
2023/03/10 00:06:20;;;;;;;0.10;0.10;;;9.10;99.90;230.40;231737.00;;;;5117362;27;20196;-73
2023/03/10 00:08:48;;;;;;;0.10;0.10;;;9.00;99.90;230.40;231737.00;;;;5115630;27;20556;-75
2023/03/10 00:11:17;;;;;;;0.10;0.10;;;9.00;99.90;230.40;231737.00;;;;5119437;27;20191;-74
2023/03/10 00:13:46;;;;;;;0.10;0.10;;;8.90;99.90;230.40;231737.00;;;;5112298;27;20220;-73
2023/03/10 00:16:19;;;;;;;0.10;0.10;;;8.90;99.90;230.40;231737.00;;;;5111093;28;20192;-74
2023/03/10 00:18:48;;;;;;;0.10;0.10;;;8.90;99.90;230.40;231737.00;;;;5115860;27;20204;-74
2023/03/10 00:21:18;;;;;;;0.10;0.10;;;8.90;99.90;230.40;231737.00;;;;5106878;27;20204;-74
2023/03/10 00:23:46;;;;;;;0.10;0.10;;;8.90;99.90;230.40;231737.00;;;;5120534;27;20220;-74
2023/03/10 00:26:17;;;;;;;0.10;0.10;;;8.90;99.90;230.40;231737.00;;;;5111599;27;20215;-74
2023/03/10 00:28:47;;;;;;;0.10;0.10;;;8.90;99.90;230.40;231737.00;;;;5117966;27;20233;-74
2023/03/10 00:31:18;;;;;;;0.10;0.10;;;8.90;99.90;230.40;231737.00;;;;5117650;27;20204;-74
2023/03/10 00:33:46;;;;;;;0.10;0.10;;;8.90;99.90;230.40;231737.00;;;;5116571;27;20455;-73
2023/03/10 00:36:18;;;;;;;0.10;0.10;;;8.90;99.90;230.40;231737.00;;;;5103083;27;20202;-74
2023/03/10 00:38:50;;;;;;;0.00;0.00;;;8.90;99.90;230.40;231737.00;;;;5124025;27;20202;-74
2023/03/10 00:41:21;;;;;;;0.10;0.10;;;9.00;99.90;230.40;231737.00;;;;5118335;27;20204;-74
2023/03/10 00:43:51;;;;;;;0.10;0.10;;;9.00;99.90;230.40;231737.00;;;;5118198;27;20628;-74
2023/03/10 00:46:19;;;;;;;0.10;0.10;;;9.00;99.90;230.40;231737.00;;;;5122151;27;20195;-74
2023/03/10 00:48:48;;;;;;;0.10;0.10;;;9.00;99.90;230.40;231737.00;;;;5114196;27;20189;-74
2023/03/10 00:51:17;;;;;;;0.10;0.10;;;9.10;99.90;230.40;231737.00;;;;5114924;27;20226;-73
2023/03/10 00:53:45;;;;;;;0.10;0.10;;;9.10;99.90;230.40;231737.00;;;;5120533;27;20229;-73
2023/03/10 00:56:15;;;;;;;0.10;0.10;;;9.20;99.90;230.40;231737.00;;;;5101971;27;20203;-73
2023/03/10 00:58:45;;;;;;;0.10;0.10;;;9.20;99.90;230.40;231737.00;;;;5125078;27;20587;-72
2023/03/10 01:01:18;;;;;;;0.10;0.10;;;9.20;99.90;230.40;231737.00;;;;5111142;27;20207;-74
2023/03/10 01:03:49;;;;;;;0.10;0.10;;;9.20;99.90;230.40;231737.00;;;;5107684;27;20311;-74
2023/03/10 01:06:19;;;;;;;0.10;0.10;;;9.20;99.90;230.40;231737.00;;;;5119026;27;20283;-74
2023/03/10 01:08:47;;;;;;;0.10;0.10;;;9.20;99.90;230.40;231737.00;;;;5117031;27;20218;-74
2023/03/10 01:11:17;;;;;;;0.10;0.10;;;9.30;99.90;230.40;231737.00;;;;5107916;27;20215;-73
2023/03/10 01:13:45;;;;;;;0.10;0.10;;;9.30;99.90;230.40;231737.00;;;;5116878;27;20616;-73
2023/03/10 01:16:15;;;;;;;0.10;0.10;;;9.30;99.90;230.40;231737.00;;;;5105939;27;20623;-73
2023/03/10 01:18:44;;;;;;;0.10;0.10;;;9.40;99.90;230.40;231737.00;;;;5108326;27;20200;-74
2023/03/10 01:21:18;;;;;;;0.10;0.10;;;9.40;99.90;230.40;231737.00;;;;5109216;27;20564;-74
2023/03/10 01:23:46;;;;;;;0.10;0.10;;;9.40;99.90;230.40;231737.00;;;;5114416;27;20216;-75
2023/03/10 01:26:17;;;;;;;0.10;0.10;;;9.40;99.90;230.40;231737.00;;;;5116215;27;20211;-74
2023/03/10 01:28:48;;;;;;;0.10;0.10;;;9.40;99.90;230.40;231737.00;;;;5108644;27;20612;-72
2023/03/10 01:31:18;;;;;;;0.10;0.10;;;9.40;99.90;230.40;231737.00;;;;5109651;27;20193;-72
2023/03/10 01:33:47;;;;;;;0.10;0.10;;;9.40;99.90;230.40;231737.00;;;;5111726;27;20224;-73
2023/03/10 01:36:18;;;;;;;0.10;0.10;;;9.40;99.90;230.40;231737.00;;;;5115291;27;20201;-72
2023/03/10 01:38:47;;;;;;;0.10;0.10;;;9.40;99.90;230.40;231737.00;;;;5114752;27;20193;-73
2023/03/10 01:41:17;;;;;;;0.10;0.10;;;9.30;99.90;230.40;231737.00;;;;5110971;27;20196;-73
2023/03/10 01:43:49;;;;;;;0.08;0.08;;;9.30;99.90;230.40;231737.00;;;;5119446;27;20257;-73
2023/03/10 01:46:41;;;;;;;0.10;0.10;;;9.20;99.90;230.40;231737.00;;;;5103636;27;20201;-73
2023/03/10 01:49:39;;;;;;;0.10;0.10;;;9.20;99.90;230.40;231737.00;;;;5103420;27;20199;-74
2023/03/10 01:52:16;;;;;;;0.10;0.10;;;9.10;99.90;230.40;231737.00;;;;5113546;27;20245;-75
2023/03/10 01:54:49;;;;;;;0.00;0.00;;;9.00;99.90;230.40;231737.00;;;;5121760;27;20650;-75
2023/03/10 01:57:23;;;;;;;0.10;0.10;;;8.90;99.90;230.40;231737.00;;;;5099544;28;20188;-75
2023/03/10 01:59:53;;;;;;;0.10;0.10;;;8.90;99.90;230.40;231737.00;;;;5119882;27;20224;-76
2023/03/10 02:02:24;;;;;;;0.10;0.10;;;8.80;99.90;230.40;231737.00;;;;5109471;27;20204;-75
2023/03/10 02:04:54;;;;;;;0.10;0.10;;;8.80;99.90;230.40;231737.00;;;;5109319;27;20729;-76
2023/03/10 02:07:27;;;;;;;0.10;0.10;;;8.80;99.90;230.40;231737.00;;;;5105584;27;20197;-72
2023/03/10 02:09:56;;;;;;;0.10;0.10;;;8.80;99.90;230.40;231737.00;;;;5117744;27;20676;-73
2023/03/10 02:12:25;;;;;;;0.10;0.10;;;8.80;99.90;230.40;231737.00;;;;5113663;27;20287;-72
2023/03/10 02:14:54;;;;;;;0.10;0.10;;;8.80;99.90;230.40;231737.00;;;;5107849;27;20235;-73
2023/03/10 02:17:26;;;;;;;0.10;0.10;;;8.80;99.90;230.40;231737.00;;;;5111937;27;20204;-76
2023/03/10 02:20:17;;;;;;;0.10;0.10;;;8.80;99.90;230.40;231737.00;;;;5110036;28;20199;-75
2023/03/10 02:22:45;;;;;;;0.10;0.10;;;8.80;99.90;230.40;231737.00;;;;5117794;28;20217;-75
2023/03/10 02:25:29;;;;;;;0.10;0.10;;;8.80;99.90;230.40;231737.00;;;;5127621;27;20220;-75
2023/03/10 02:27:59;;;;;;;0.10;0.10;;;8.80;99.90;230.40;231737.00;;;;5123375;28;20187;-74
2023/03/10 02:30:32;;;;;;;0.10;0.10;;;8.90;99.90;230.40;231737.00;;;;5112195;27;20192;-76
2023/03/10 02:33:06;;;;;;;0.10;0.10;;;8.90;99.90;230.40;231737.00;;;;5115658;28;20212;-75
2023/03/10 02:35:34;;;;;;;0.10;0.10;;;8.90;99.90;230.40;231737.00;;;;5111564;28;20195;-75
2023/03/10 02:38:07;;;;;;;0.10;0.10;;;8.90;99.90;230.40;231737.00;;;;5111313;28;20207;-76
2023/03/10 02:40:39;;;;;;;0.10;0.10;;;9.00;99.90;230.40;231737.00;;;;5124297;27;20206;-75
2023/03/10 02:43:22;;;;;;;0.10;0.10;;;9.10;99.90;230.40;231737.00;;;;5124339;27;20221;-73
2023/03/10 02:45:58;;;;;;;0.10;0.10;;;9.10;99.90;230.40;231737.00;;;;5125863;27;20602;-73
2023/03/10 02:48:31;;;;;;;0.10;0.10;;;9.10;99.90;230.40;231737.00;;;;5124486;27;20188;-73
2023/03/10 02:51:03;;;;;;;0.10;0.10;;;9.20;99.90;230.40;231737.00;;;;5116225;27;20291;-71
2023/03/10 02:53:32;;;;;;;0.10;0.10;;;9.20;99.90;230.40;231737.00;;;;5127585;27;20251;-71
2023/03/10 02:56:00;;;;;;;0.10;0.10;;;9.20;99.90;230.40;231737.00;;;;5118395;27;20236;-72
2023/03/10 02:58:32;;;;;;;0.10;0.10;;;9.10;99.90;230.40;231737.00;;;;5117459;27;20746;-73
2023/03/10 03:01:03;;;;;;;0.10;0.10;;;9.20;99.90;230.40;231737.00;;;;5118881;27;20200;-75
2023/03/10 03:03:35;;;;;;;0.10;0.10;;;9.20;99.90;230.40;231737.00;;;;5122881;27;20269;-75
2023/03/10 03:06:04;;;;;;;0.10;0.10;;;9.20;99.90;230.40;231737.00;;;;5119591;27;20746;-75
2023/03/10 03:08:33;;;;;;;0.10;0.10;;;9.20;99.90;230.40;231737.00;;;;5121256;27;20204;-75
2023/03/10 03:11:04;;;;;;;0.00;0.00;;;9.20;99.90;230.40;231737.00;;;;5120920;27;20566;-75
2023/03/10 03:13:34;;;;;;;0.10;0.10;;;9.30;99.90;230.40;231737.00;;;;5121962;27;20224;-75
2023/03/10 03:16:04;;;;;;;0.10;0.10;;;9.30;99.90;230.40;231737.00;;;;5113120;27;20684;-76
2023/03/10 03:18:32;;;;;;;0.10;0.10;;;9.30;99.90;230.40;231737.00;;;;5121147;27;20200;-75
2023/03/10 03:21:05;;;;;;;0.10;0.10;;;9.40;99.90;230.40;231737.00;;;;5118639;27;20238;-75
2023/03/10 03:23:34;;;;;;;0.10;0.10;;;9.40;99.90;230.40;231737.00;;;;5119949;27;20273;-75
2023/03/10 03:26:02;;;;;;;0.10;0.10;;;9.40;99.90;230.40;231737.00;;;;5120088;27;20227;-75
2023/03/10 03:28:31;;;;;;;0.10;0.10;;;9.40;99.90;230.40;231737.00;;;;5116472;27;20272;-75
2023/03/10 03:31:01;;;;;;;0.10;0.10;;;9.40;99.90;230.40;231737.00;;;;5116003;27;20196;-75
2023/03/10 03:33:31;;;;;;;0.10;0.10;;;9.40;99.90;230.40;231737.00;;;;5120987;27;20311;-74
2023/03/10 03:35:59;;;;;;;0.10;0.10;;;9.40;99.90;230.40;231737.00;;;;5124131;27;20206;-74
2023/03/10 03:38:28;;;;;;;0.10;0.10;;;9.40;99.90;230.40;231737.00;;;;5111588;27;20203;-74
2023/03/10 03:40:56;;;;;;;0.10;0.10;;;9.40;99.90;230.40;231737.00;;;;5128574;27;20658;-75
2023/03/10 03:43:26;;;;;;;0.10;0.10;;;9.50;99.90;230.40;231737.00;;;;5118908;27;20216;-76
2023/03/10 03:45:55;;;;;;;0.10;0.10;;;9.50;99.90;230.40;231737.00;;;;5122727;27;20562;-75
2023/03/10 03:48:25;;;;;;;0.10;0.10;;;9.50;99.90;230.40;231737.00;;;;5118275;27;20207;-75
2023/03/10 03:50:52;;;;;;;0.10;0.10;;;9.50;99.90;230.40;231737.00;;;;5127006;27;20188;-75
2023/03/10 03:53:27;;;;;;;0.10;0.10;;;9.50;99.90;230.40;231737.00;;;;5119424;27;20636;-75
2023/03/10 03:55:55;;;;;;;0.10;0.10;;;9.50;99.90;230.40;231737.00;;;;5114835;27;20205;-75
2023/03/10 03:58:26;;;;;;;0.10;0.10;;;9.50;99.90;230.40;231737.00;;;;5115860;27;20200;-74
2023/03/10 04:00:54;;;;;;;0.10;0.10;;;9.60;99.90;230.40;231737.00;;;;5116645;27;20211;-74
2023/03/10 04:03:25;;;;;;;0.10;0.10;;;9.50;99.90;230.40;231737.00;;;;5109136;27;20212;-74
2023/03/10 04:05:53;;;;;;;0.10;0.10;;;9.50;99.90;230.40;231737.00;;;;5113562;27;20220;-75
2023/03/10 04:08:21;;;;;;;0.10;0.10;;;9.50;99.90;230.40;231737.00;;;;5122598;27;20545;-74
2023/03/10 04:10:51;;;;;;;0.10;0.10;;;9.50;99.90;230.40;231737.00;;;;5123015;27;20245;-76
2023/03/10 04:13:21;;;;;;;0.10;0.10;;;9.40;99.90;230.40;231737.00;;;;5117320;27;20215;-74
2023/03/10 04:15:56;;;;;;;0.10;0.10;;;9.40;99.90;230.40;231737.00;;;;5128274;27;20207;-75
2023/03/10 04:18:26;;;;;;;0.10;0.10;;;9.40;99.90;230.40;231737.00;;;;5107633;27;20299;-74
2023/03/10 04:20:55;;;;;;;0.10;0.10;;;9.40;99.90;230.40;231737.00;;;;5137469;27;20233;-75
2023/03/10 04:23:23;;;;;;;0.10;0.10;;;9.40;99.90;230.40;231737.00;;;;5119951;27;20243;-75
2023/03/10 04:25:52;;;;;;;0.10;0.10;;;9.40;99.90;230.40;231737.00;;;;5110138;27;20720;-75
2023/03/10 04:28:20;;;;;;;0.10;0.10;;;9.40;99.90;230.40;231737.00;;;;5117357;27;20192;-75
2023/03/10 04:30:50;;;;;;;0.10;0.10;;;9.40;99.90;230.40;231737.00;;;;5112260;27;20707;-75
2023/03/10 04:33:22;;;;;;;0.10;0.10;;;9.40;99.90;230.40;231737.00;;;;5122282;27;20223;-75
2023/03/10 04:35:52;;;;;;;0.10;0.10;;;9.40;99.90;230.40;231737.00;;;;5112607;27;20201;-74
2023/03/10 04:38:22;;;;;;;0.10;0.10;;;9.30;99.90;230.40;231737.00;;;;5111099;27;20203;-74
2023/03/10 04:40:55;;;;;;;0.10;0.10;;;9.30;99.90;230.40;231737.00;;;;5114251;27;20231;-76
2023/03/10 04:43:27;;;;;;;0.10;0.10;;;9.30;99.90;230.40;231737.00;;;;5122090;27;20686;-75
2023/03/10 04:45:57;;;;;;;0.10;0.10;;;9.30;99.90;230.40;231737.00;;;;5113566;27;20233;-75
2023/03/10 04:48:28;;;;;;;0.10;0.10;;;9.30;99.90;230.40;231737.00;;;;5108133;27;20197;-74
2023/03/10 04:51:00;;;;;;;0.10;0.10;;;9.20;99.90;230.40;231737.00;;;;5118128;27;20189;-74
2023/03/10 04:53:33;;;;;;;0.10;0.10;;;9.20;99.90;230.40;231737.00;;;;5114529;27;20212;-75
2023/03/10 04:56:05;;;;;;;0.10;0.10;;;9.20;99.90;230.40;231737.00;;;;5119499;27;20659;-74
2023/03/10 04:58:35;;;;;;;0.10;0.10;;;9.20;99.90;230.40;231737.00;;;;5112128;27;20191;-75
2023/03/10 05:01:09;;;;;;;0.10;0.10;;;9.20;99.90;28.70;99304.00;;;;5118260;27;20221;-75
2023/03/10 05:03:41;;;;;;;0.10;0.10;;;9.20;99.90;28.70;99255.00;;;;5115766;27;20215;-75
2023/03/10 05:06:17;;;;;;;0.10;0.10;;;9.20;99.90;28.70;99289.00;;;;5106985;27;20223;-74
2023/03/10 05:08:51;;;;;;;0.10;0.10;;;9.20;99.90;28.70;99274.00;;;;5116072;27;20199;-74
2023/03/10 05:11:23;;;;;;;0.10;0.10;;;9.10;99.90;28.70;99247.00;;;;5123876;27;20616;-74
2023/03/10 05:13:52;;;;;;;0.10;0.10;;;9.10;99.90;28.70;99263.00;;;;5113945;27;20216;-75
2023/03/10 05:16:22;;;;;;;0.10;0.10;;;9.10;99.90;28.70;99279.00;;;;5119383;27;20200;-73
2023/03/10 05:18:52;;;;;;;0.10;0.10;;;9.10;99.90;28.60;99223.00;;;;5113570;27;20204;-74
2023/03/10 05:21:26;;;;;;;0.10;0.10;;;9.10;99.90;28.60;99240.00;;;;5111283;27;20297;-75
2023/03/10 05:23:56;;;;;;;0.10;0.10;;;9.00;99.90;28.60;99254.00;;;;5119987;27;20265;-75
2023/03/10 05:26:25;;;;;;;0.10;0.10;;;9.00;99.90;28.60;99243.00;;;;5107398;27;20213;-75
2023/03/10 05:28:53;;;;;;;0.10;0.10;;;9.00;99.90;28.60;99272.00;;;;5115174;27;20200;-74
2023/03/10 05:31:30;;;;;;;0.03;0.03;;;9.00;99.90;28.60;99253.00;;;;5110414;27;20204;-76
2023/03/10 05:34:05;;;;;;;0.10;0.10;;;9.00;99.90;28.60;99243.00;;;;5113440;27;20278;-74
2023/03/10 05:36:34;;;;;;;0.10;0.10;;;9.00;99.90;28.60;99231.00;;;;5116625;27;20211;-73
2023/03/10 05:39:06;;;;;;;0.00;0.00;;;9.00;99.90;28.60;99245.00;;;;5109162;27;20201;-73
2023/03/10 05:41:38;;;;;;;0.10;0.10;;;8.90;99.90;28.50;99227.00;;;;5114836;27;20199;-74
2023/03/10 05:44:07;;;;;;;0.05;0.05;;;8.90;99.90;28.50;99241.00;;;;5118223;27;20633;-73
2023/03/10 05:46:36;;;;;;;0.10;0.10;;;8.90;99.90;28.50;99269.00;;;;5111541;27;20227;-74
2023/03/10 05:49:04;;;;;;;0.10;0.10;;;8.90;99.90;28.50;99273.00;;;;5104700;27;20192;-74
2023/03/10 05:51:34;;;;;;;0.10;0.10;;;8.90;99.90;28.50;99260.00;;;;5108960;27;20224;-73
2023/03/10 05:54:05;;;;;;;0.10;0.10;;;8.90;99.90;28.50;99255.00;;;;5112251;27;20223;-73
2023/03/10 05:56:33;;;;;;;0.10;0.10;;;8.90;99.90;28.50;99289.00;;;;5107286;27;20223;-73
2023/03/10 05:59:03;;;;;;;0.10;0.10;;;8.90;99.90;28.50;99282.00;;;;5109833;27;20593;-74
2023/03/10 06:01:34;;;;;;;0.10;0.10;;;8.90;99.90;28.50;99232.00;;;;5117259;27;20199;-73
2023/03/10 06:04:02;;;;;;;0.10;0.10;;;8.90;99.90;28.50;99236.00;;;;5105840;27;20219;-72
2023/03/10 06:06:30;;;;;;;0.10;0.10;;;8.90;99.90;28.50;99205.00;;;;5106559;27;20229;-72
2023/03/10 06:09:00;;;;;;;0.10;0.10;;;8.90;99.90;28.50;99232.00;;;;5116621;27;20234;-72
2023/03/10 06:11:28;;;;;;;0.10;0.10;;;8.90;99.90;28.50;99242.00;;;;5110797;27;20600;-72
2023/03/10 06:13:56;;;;;;;0.10;0.10;;;8.90;99.90;28.60;99259.00;;;;5118165;27;20216;-72
2023/03/10 06:16:25;;;;;;;0.10;0.10;;;9.00;99.90;28.60;99275.00;;;;5104460;27;20255;-72
2023/03/10 06:18:54;;;;;;;0.10;0.10;;;8.90;99.90;28.60;99270.00;;;;5112041;27;20223;-73
2023/03/10 06:21:24;;;;;;;0.10;0.10;;;8.90;99.90;28.60;99245.00;;;;5107586;27;20632;-73
2023/03/10 06:23:52;;;;;;;0.10;0.10;;;9.00;99.90;28.60;99264.00;;;;5116018;28;20682;-73
2023/03/10 06:26:23;;;;;;;0.10;0.10;;;9.00;99.90;28.60;99384.00;;;;5111336;28;20223;-73
2023/03/10 06:28:51;;;;;;;0.10;0.10;;;8.90;99.90;28.60;99422.00;;;;5116024;28;20682;-73
2023/03/10 06:31:23;;;;;;;0.10;0.10;;;9.00;99.90;28.60;99397.00;;;;5112092;27;20199;-73
2023/03/10 06:33:51;;;;;;;0.10;0.10;;;9.00;99.90;28.60;99390.00;;;;5109325;28;20682;-73
2023/03/10 06:36:20;;;;;;;0.10;0.10;;;9.00;99.90;28.60;99410.00;;;;5109052;27;20201;-73
2023/03/10 06:38:49;;;;;;;0.10;0.10;;;9.00;99.90;28.60;99409.00;;;;5106884;28;20197;-74
2023/03/10 06:41:19;;;;;;;0.10;0.10;;;9.00;99.90;28.70;99481.00;;;;5118840;28;20202;-73
2023/03/10 06:43:49;;;;;;;0.10;0.10;;;9.00;99.90;28.70;99621.00;;;;5108786;28;20602;-76
2023/03/10 06:46:17;;;;;;;0.10;0.10;;;9.10;99.90;28.70;99688.00;;;;5120863;28;20195;-73
2023/03/10 06:48:46;;;;;;;0.10;0.10;;;9.10;99.90;28.80;99703.00;;;;5110993;28;20200;-73
2023/03/10 06:51:17;;;;;;;0.10;0.10;;;9.10;99.90;28.80;99735.00;;;;5107988;28;20187;-74
2023/03/10 06:53:46;;;;;;;0.10;0.10;;;9.10;99.90;28.80;99686.00;;;;5115648;27;20229;-73
2023/03/10 06:56:18;;;;;;;0.10;0.10;;;9.20;99.90;28.80;99735.00;;;;5108867;28;20196;-73
2023/03/10 06:58:49;;;;;;;0.10;0.10;;;9.10;99.90;28.80;99676.00;;;;5116127;27;20211;-73
2023/03/10 07:01:26;;;;;;;0.10;0.10;;;9.20;99.90;28.80;99658.00;;;;5102583;28;20185;-73
2023/03/10 07:03:55;;;;;;;0.10;0.10;;;9.20;99.90;28.80;99604.00;;;;5125862;28;20211;-73
2023/03/10 07:06:24;;;;;;;0.10;0.10;;;9.20;99.90;28.80;99578.00;;;;5115527;28;20199;-73
2023/03/10 07:08:53;;;;;;;0.10;0.10;;;9.20;99.90;28.80;99598.00;;;;5117776;27;20196;-73
2023/03/10 07:11:23;;;;;;;0.10;0.10;;;9.20;99.90;28.80;99606.00;;;;5118101;27;20195;-73
2023/03/10 07:13:53;;;;;;;0.10;0.10;;;9.20;99.90;28.80;99621.00;;;;5126943;27;20234;-73
2023/03/10 07:16:22;;;;;;;0.10;0.10;;;9.20;99.90;28.80;99572.00;;;;5111135;27;20197;-73
2023/03/10 07:18:50;;;;;;;0.10;0.10;;;9.30;99.90;28.80;99588.00;;;;5116730;28;20710;-73
2023/03/10 07:21:20;;;;;;;0.10;0.10;;;9.30;99.90;29.10;100270.00;;;;5112681;27;20201;-73
2023/03/10 07:23:49;;;;;;;0.10;0.10;;;9.20;99.90;28.80;99009.00;;;;5111384;28;20207;-73
2023/03/10 07:26:18;;;;;;;0.10;0.10;;;9.30;99.90;28.80;98833.00;;;;5118838;27;20196;-72
2023/03/10 07:28:47;;;;;;;0.08;0.08;;;9.30;99.90;28.80;98786.00;;;;5124847;27;20212;-72
2023/03/10 07:31:17;;;;;;;0.10;0.10;;;9.30;99.90;28.80;98779.00;;;;5119895;27;20209;-72
2023/03/10 07:33:45;;;;;;;0.00;0.00;;;9.30;99.90;28.80;98840.00;;;;5113441;27;20265;-75
2023/03/10 07:36:16;;;;;;;0.10;0.10;;;9.30;99.90;28.80;98885.00;;;;5123099;27;20222;-73
2023/03/10 07:38:45;;;;;;;0.10;0.10;;;9.30;99.90;28.80;98902.00;;;;5113935;27;20197;-75
2023/03/10 07:41:16;;;;;;;0.10;0.10;;;9.30;99.90;28.70;98961.00;;;;5121322;27;20381;-73
2023/03/10 07:43:45;;;;;;;0.10;0.10;;;9.30;99.90;28.80;98801.00;;;;5118504;27;20213;-73
2023/03/10 07:46:15;;;;;;;0.10;0.10;;;9.30;99.90;28.80;98850.00;;;;5122070;27;20203;-73
2023/03/10 07:48:44;;;;;;;0.10;0.10;;;9.40;99.90;28.80;98766.00;;;;5119267;27;20227;-74
2023/03/10 07:51:12;;;;;;;0.10;0.10;;;9.40;99.90;28.90;98812.00;;;;5115221;27;20230;-73
2023/03/10 07:53:40;;;;;;;0.08;0.08;;;9.40;99.90;28.90;98819.00;;;;5118806;27;20215;-74
2023/03/10 07:56:12;;;;;;;0.10;0.10;;;9.40;99.90;28.90;98872.00;;;;5128554;27;20188;-74
2023/03/10 07:58:40;;;;;;;0.10;0.10;;;9.50;99.90;28.90;98798.00;;;;5114535;27;20208;-74
2023/03/10 08:01:17;;;;;;;0.10;0.10;;;9.50;99.90;28.90;98831.00;;;;5110614;27;20206;-74
2023/03/10 08:03:46;;;;;;;0.10;0.10;;;9.50;99.90;28.90;98800.00;;;;5123805;27;20220;-73
2023/03/10 08:06:21;;;;;;;0.05;0.05;;;9.50;99.90;29.00;98851.00;;;;5124767;27;20205;-74
2023/03/10 08:08:49;;;;;;;0.10;0.10;;;9.60;99.90;29.00;98881.00;;;;5114835;27;20605;-75
2023/03/10 08:11:23;;;;;;;0.10;0.10;;;9.60;99.90;29.00;98838.00;;;;5111374;27;20690;-74
2023/03/10 08:14:22;;;;;;;0.10;0.10;;;9.60;99.90;29.10;98916.00;;;;5110183;27;20212;-73
2023/03/10 08:16:53;;;;;;;0.10;0.10;;;9.70;99.90;29.10;98888.00;;;;5115946;27;20197;-74
2023/03/10 08:19:21;;;;;;;0.10;0.10;;;9.70;99.90;29.10;98861.00;;;;5118945;27;20197;-74
2023/03/10 08:21:50;;;;;;;0.10;0.10;;;9.80;99.90;29.20;98920.00;;;;5107813;27;20205;-74
2023/03/10 08:24:18;;;;;;;0.10;0.10;;;9.80;99.90;29.20;98793.00;;;;5124950;27;20231;-74
2023/03/10 08:26:47;;;;;;;0.10;0.10;;;9.80;99.90;29.20;98844.00;;;;5117604;27;20193;-73
2023/03/10 08:29:15;;;;;;;0.10;0.10;;;9.90;99.90;29.20;98859.00;;;;5129845;27;20211;-73
2023/03/10 08:31:43;;;;;;;0.10;0.10;;;9.90;99.90;29.20;98824.00;;;;5123157;27;20207;-74
2023/03/10 08:34:13;;;;;;;0.10;0.10;;;9.80;99.90;29.20;98797.00;;;;5116612;27;20212;-74
2023/03/10 08:36:43;;;;;;;0.10;0.10;;;9.90;99.90;29.20;98698.00;;;;5116874;27;20207;-73
2023/03/10 08:39:12;;;;;;;0.10;0.10;;;9.90;99.90;29.20;98835.00;;;;5117314;27;20201;-73
2023/03/10 08:41:45;;;;;;;0.10;0.10;;;9.90;99.90;29.20;98855.00;;;;5113378;27;20604;-74
2023/03/10 08:44:16;;;;;;;0.00;0.00;;;9.90;99.90;29.30;98926.00;;;;5120806;27;20222;-74
2023/03/10 08:46:47;;;;;;;0.00;0.00;;;10.00;99.90;29.30;98761.00;;;;5123644;27;20271;-74
2023/03/10 08:49:20;;;;;;;0.10;0.10;;;10.00;99.90;29.30;98662.00;;;;5119843;27;20226;-73
2023/03/10 08:51:49;;;;;;;0.10;0.10;;;10.10;99.90;29.40;98668.00;;;;5127275;27;20208;-74
2023/03/10 08:54:20;;;;;;;0.10;0.10;;;10.10;99.90;29.40;98788.00;;;;5125383;27;20208;-74
2023/03/10 08:56:49;;;;;;;0.10;0.10;;;10.10;99.90;29.40;98780.00;;;;5126179;27;20195;-73
2023/03/10 08:59:18;;;;;;;0.10;0.10;;;10.20;99.90;29.40;98826.00;;;;5113138;28;20201;-73
2023/03/10 09:01:46;;;;;;;0.00;0.00;;;10.20;99.90;29.50;98730.00;;;;5121773;27;20203;-74
2023/03/10 09:04:16;;;;;;;0.10;0.10;;;10.30;99.90;29.60;98774.00;;;;5119117;27;20214;-73
2023/03/10 09:06:44;;;;;;;0.10;0.10;;;10.40;99.90;29.60;98858.00;;;;5124798;27;20200;-73
2023/03/10 09:09:13;;;;;;;0.10;0.10;;;10.50;99.90;29.60;98745.00;;;;5107244;27;20323;-73
2023/03/10 09:11:42;;;;;;;0.10;0.10;;;10.50;99.90;29.70;98855.00;;;;5122314;27;20198;-74
2023/03/10 09:14:11;;;;;;;0.10;0.10;;;10.50;99.90;29.70;98864.00;;;;5126229;27;20214;-73
2023/03/10 09:16:43;;;;;;;0.10;0.10;;;10.60;99.90;29.80;98834.00;;;;5110519;27;20236;-73
2023/03/10 09:19:11;;;;;;;0.10;0.10;;;10.60;99.90;29.70;98923.00;;;;5118624;27;20550;-73
2023/03/10 09:21:41;;;;;;;0.10;0.10;;;10.60;99.90;29.70;98859.00;;;;5110707;27;20209;-73
2023/03/10 09:24:10;;;;;;;0.10;0.10;;;10.70;99.90;29.80;98991.00;;;;5128889;27;20323;-73
2023/03/10 09:26:38;;;;;;;0.10;0.10;;;10.70;99.90;29.80;98846.00;;;;5120656;27;20223;-73
2023/03/10 09:29:08;;;;;;;0.10;0.10;;;10.80;99.90;29.80;98737.00;;;;5127307;27;20215;-73
2023/03/10 09:31:38;;;;;;;0.10;0.10;;;10.80;99.90;29.90;98784.00;;;;5116429;27;20216;-73
2023/03/10 09:34:07;;;;;;;0.10;0.10;;;10.80;99.90;30.00;98780.00;;;;5124773;27;20248;-73
2023/03/10 09:36:36;;;;;;;0.10;0.10;;;10.90;99.90;30.00;98788.00;;;;5122338;27;20276;-73
2023/03/10 09:39:05;;;;;;;0.10;0.10;;;11.00;99.90;30.00;98767.00;;;;5120542;27;20201;-73
2023/03/10 09:42:24;;;;;;;0.10;0.10;;;11.00;99.90;30.00;98758.00;;;;5131328;27;20203;-74
2023/03/10 09:45:25;;;;;;;0.10;0.10;;;11.00;99.90;30.00;98761.00;;;;5122605;27;20637;-74
2023/03/10 09:48:11;;;;;;;0.10;0.10;;;11.00;99.90;30.00;98777.00;;;;5123863;27;20185;-74
2023/03/10 09:50:44;;;;;;;0.10;0.10;;;11.00;99.90;30.00;98747.00;;;;5114015;27;20192;-73
2023/03/10 09:53:38;;;;;;;0.10;0.10;;;11.10;99.90;30.10;98821.00;;;;5118461;27;20212;-74
2023/03/10 09:56:13;;;;;;;0.10;0.10;;;11.10;99.90;30.00;98828.00;;;;5124229;27;20689;-74
2023/03/10 09:58:45;;;;;;;0.10;0.10;;;11.10;99.90;30.10;98850.00;;;;5116462;27;20203;-74
2023/03/10 10:01:18;;;;;;;0.10;0.10;;;11.10;99.90;30.10;98898.00;;;;5119633;27;20195;-73
2023/03/10 10:03:51;;;;;;;0.10;0.10;;;11.20;99.90;30.20;98874.00;;;;5126978;27;20231;-74
2023/03/10 10:06:26;;;;;;;0.10;0.10;;;11.30;99.90;30.10;98886.00;;;;5119952;27;20206;-74
2023/03/10 10:08:59;;;;;;;0.10;0.10;;;11.20;99.90;30.20;98885.00;;;;5125335;27;20219;-73
2023/03/10 10:11:36;;;;;;;0.10;0.10;;;11.30;99.90;30.30;99054.00;;;;5121532;27;20237;-73
2023/03/10 10:14:20;;;;;;;0.10;0.10;;;11.30;99.90;30.30;98992.00;;;;5117111;27;20223;-73
2023/03/10 10:17:08;;;;;;;0.10;0.10;;;11.40;99.90;30.40;98895.00;;;;5114871;27;20197;-74
2023/03/10 10:19:38;;;;;;;0.10;0.10;;;11.60;99.90;30.40;98606.00;;;;5112796;28;20215;-74
2023/03/10 10:22:17;;;;;;;0.05;0.05;;;11.60;99.90;30.50;98607.00;;;;5118251;27;20253;-74
2023/03/10 10:25:02;;;;;;;0.00;0.00;;;11.70;99.90;30.60;98616.00;;;;5113215;28;20197;-74
2023/03/10 10:27:32;;;;;;;0.10;0.10;;;11.90;99.90;30.70;98608.00;;;;5111765;28;20192;-74
2023/03/10 10:30:30;;;;;;;0.10;0.10;;;12.00;99.90;30.70;98647.00;;;;5119645;28;20579;-74
2023/03/10 10:33:00;;;;;;;0.10;0.10;;;12.00;99.90;30.80;98609.00;;;;5113028;28;20696;-74
2023/03/10 10:35:31;;;;;;;0.10;0.10;;;12.10;99.90;30.80;98626.00;;;;5105970;28;20192;-74
2023/03/10 10:38:04;;;;;;;0.10;0.10;;;12.10;99.90;30.80;98554.00;;;;5125822;28;20195;-74
2023/03/10 10:40:36;;;;;;;0.10;0.10;;;12.20;99.90;30.70;98597.00;;;;5120640;28;20277;-73
2023/03/10 10:43:06;;;;;;;0.10;0.10;;;12.20;99.90;30.70;98607.00;;;;5128063;28;20220;-74
2023/03/10 10:45:37;;;;;;;0.08;0.08;;;12.10;99.90;30.70;98588.00;;;;5107975;28;20278;-74
2023/03/10 10:48:06;;;;;;;0.10;0.10;;;12.10;99.90;30.80;98535.00;;;;5119400;28;20197;-74
2023/03/10 10:50:36;;;;;;;0.00;0.00;;;12.10;99.90;30.70;98538.00;;;;5118720;28;20276;-74
2023/03/10 10:53:23;;;;;;;0.10;0.10;;;12.00;99.90;30.60;98588.00;;;;5131445;27;20219;-74
2023/03/10 10:56:03;;;;;;;0.10;0.10;;;12.00;99.90;30.70;98528.00;;;;5122098;28;20686;-74
2023/03/10 10:58:36;;;;;;;0.10;0.10;;;12.00;99.90;30.70;98590.00;;;;5126183;27;20196;-74
2023/03/10 11:01:07;;;;;;;0.10;0.10;;;12.00;99.90;30.80;98502.00;;;;5120444;28;20231;-74
2023/03/10 11:03:37;;;;;;;0.05;0.05;;;12.10;99.90;30.80;98551.00;;;;5133234;27;20585;-73
2023/03/10 11:06:15;;;;;;;0.00;0.00;;;12.10;99.90;30.80;98549.00;;;;5131114;27;20261;-74
2023/03/10 11:08:49;;;;;;;0.00;0.00;;;12.20;99.90;30.90;98535.00;;;;5122316;27;20223;-73
2023/03/10 11:11:28;;;;;;;0.10;0.10;;;12.20;99.90;31.00;98509.00;;;;5127718;27;20211;-73